< < Back
Terminal Aerodrome Forecast


Current Version              Previous Versions:   1  2  3  4  5  6  7  8  9  

Terminal Aerodrome Forecast

305
FTUS42 KCAE 262323
TAFCAE
TAF
KCAE 262323Z 2700/2724 12006KT P6SM FEW060
     FM270100 VRB03KT P6SM SKC
     FM271500 10008KT P6SM SCT050=

Latest METAR

492
SAUS80 KWBC 271500 CCA
MTRCAE
METAR KCAE 271456Z 08006KT 10SM FEW041 32/21 A3011 RMK AO2 SLP191
T03170211 50003


USA.gov is the U.S. government's official web portal to all federal, state and local government web resources and services.